createdAt,value
2022-12-19T00:18:29.490Z,18.3
2022-12-19T00:48:29.473Z,18.2
2022-12-19T01:18:29.483Z,18.1
2022-12-19T01:48:29.457Z,18.1
2022-12-19T02:18:29.468Z,18.0
2022-12-19T02:48:29.189Z,18.0
2022-12-19T03:18:29.480Z,17.8
2022-12-19T03:48:29.479Z,17.8
2022-12-19T04:18:29.503Z,17.8
2022-12-19T04:48:29.515Z,17.9
2022-12-19T05:18:29.482Z,18.1
2022-12-19T05:48:29.490Z,18.3
2022-12-19T06:18:29.218Z,18.3
2022-12-19T06:48:29.214Z,18.5
2022-12-19T07:18:29.546Z,18.8
2022-12-19T07:48:29.506Z,19.1
2022-12-19T08:18:29.279Z,19.1
2022-12-19T08:48:29.494Z,19.1
2022-12-19T09:18:29.206Z,19.1
2022-12-19T09:48:29.498Z,19.3
2022-12-19T10:18:29.513Z,19.3
2022-12-19T10:48:29.504Z,19.3
2022-12-19T11:18:29.505Z,19.2
2022-12-19T11:48:29.480Z,19.1
2022-12-19T12:18:29.510Z,19.1
2022-12-19T12:48:29.546Z,19.1
2022-12-19T13:18:29.500Z,19.1
2022-12-19T13:48:29.514Z,19.1
2022-12-19T14:18:29.485Z,19.2
2022-12-19T14:48:29.490Z,19.2
2022-12-19T15:18:29.491Z,19.2
2022-12-19T15:48:29.544Z,19.2
2022-12-19T16:18:29.495Z,19.3
2022-12-19T16:48:29.481Z,19.3
2022-12-19T17:18:29.516Z,19.3
2022-12-19T17:48:29.493Z,19.3
2022-12-19T18:18:29.496Z,19.3
2022-12-19T18:48:29.516Z,19.3
2022-12-19T19:18:29.558Z,19.2
2022-12-19T19:48:29.561Z,19.1
2022-12-19T20:18:29.521Z,19.0
2022-12-19T20:48:29.504Z,18.8
2022-12-19T21:18:29.509Z,18.7
2022-12-19T21:48:29.546Z,18.5
2022-12-19T22:18:29.504Z,18.3
2022-12-19T22:48:29.475Z,18.3
2022-12-19T23:18:29.529Z,18.2
2022-12-19T23:48:29.473Z,18.1
